sensor_id;sensor_type;location;lat;lon;timestamp;pressure;altitude;pressure_sealevel;temperature;humidity
46223;BME280;31943;51.410;7.564;2022-09-12T00:01:48;100479.34;;;14.98;68.75
46223;BME280;31943;51.410;7.564;2022-09-12T00:04:14;100481.13;;;14.98;68.45
46223;BME280;31943;51.410;7.564;2022-09-12T00:06:41;100480.25;;;14.96;68.47
46223;BME280;31943;51.410;7.564;2022-09-12T00:09:08;100487.25;;;14.97;68.40
46223;BME280;31943;51.410;7.564;2022-09-12T00:11:35;100477.63;;;14.96;67.76
46223;BME280;31943;51.410;7.564;2022-09-12T00:14:01;100473.25;;;14.95;67.55
46223;BME280;31943;51.410;7.564;2022-09-12T00:16:30;100470.59;;;14.93;67.60
46223;BME280;31943;51.410;7.564;2022-09-12T00:18:59;100478.50;;;14.93;67.68
46223;BME280;31943;51.410;7.564;2022-09-12T00:21:28;100475.00;;;14.93;67.70
46223;BME280;31943;51.410;7.564;2022-09-12T00:23:54;100474.13;;;14.94;67.86
46223;BME280;31943;51.410;7.564;2022-09-12T00:26:21;100466.22;;;14.95;68.01
46223;BME280;31943;51.410;7.564;2022-09-12T00:28:47;100467.13;;;14.94;67.98
46223;BME280;31943;51.410;7.564;2022-09-12T00:31:16;100468.00;;;14.92;68.00
46223;BME280;31943;51.410;7.564;2022-09-12T00:33:43;100464.50;;;14.93;68.03
46223;BME280;31943;51.410;7.564;2022-09-12T00:36:12;100462.75;;;14.89;67.97
46223;BME280;31943;51.410;7.564;2022-09-12T00:38:39;100459.25;;;14.87;68.37
46223;BME280;31943;51.410;7.564;2022-09-12T00:41:05;100453.16;;;14.86;68.78
46223;BME280;31943;51.410;7.564;2022-09-12T00:43:36;100459.25;;;14.87;68.75
46223;BME280;31943;51.410;7.564;2022-09-12T00:46:06;100453.16;;;14.86;68.88
46223;BME280;31943;51.410;7.564;2022-09-12T00:48:39;100451.38;;;14.87;68.82
46223;BME280;31943;51.410;7.564;2022-09-12T00:51:06;100447.00;;;14.86;68.77
46223;BME280;31943;51.410;7.564;2022-09-12T00:53:34;100436.47;;;14.87;68.87
46223;BME280;31943;51.410;7.564;2022-09-12T00:56:00;100436.47;;;14.87;68.89
46223;BME280;31943;51.410;7.564;2022-09-12T00:58:29;100425.09;;;14.87;68.72
46223;BME280;31943;51.410;7.564;2022-09-12T01:00:57;100422.47;;;14.85;68.92
46223;BME280;31943;51.410;7.564;2022-09-12T01:03:23;100419.00;;;14.85;69.01
46223;BME280;31943;51.410;7.564;2022-09-12T01:06:03;100416.38;;;14.85;68.77
46223;BME280;31943;51.410;7.564;2022-09-12T01:08:32;100417.22;;;14.85;68.74
46223;BME280;31943;51.410;7.564;2022-09-12T01:11:00;100415.50;;;14.84;68.77
46223;BME280;31943;51.410;7.564;2022-09-12T01:13:27;100416.41;;;14.80;68.46
46223;BME280;31943;51.410;7.564;2022-09-12T01:15:53;100424.31;;;14.69;68.68
46223;BME280;31943;51.410;7.564;2022-09-12T01:18:24;100424.34;;;14.65;68.71
46223;BME280;31943;51.410;7.564;2022-09-12T01:21:05;100426.06;;;14.64;69.14
46223;BME280;31943;51.410;7.564;2022-09-12T01:26:59;100425.19;;;14.62;69.35
46223;BME280;31943;51.410;7.564;2022-09-12T01:29:55;100431.34;;;14.61;69.23
46223;BME280;31943;51.410;7.564;2022-09-12T01:32:31;100424.34;;;14.60;68.94
46223;BME280;31943;51.410;7.564;2022-09-12T01:35:05;100424.38;;;14.57;68.83
46223;BME280;31943;51.410;7.564;2022-09-12T01:37:39;100428.72;;;14.52;68.96
46223;BME280;31943;51.410;7.564;2022-09-12T01:40:15;100424.34;;;14.48;68.75
46223;BME280;31943;51.410;7.564;2022-09-12T01:42:51;100421.75;;;14.43;69.13
46223;BME280;31943;51.410;7.564;2022-09-12T01:45:25;100419.13;;;14.40;68.81
46223;BME280;31943;51.410;7.564;2022-09-12T01:47:59;100414.75;;;14.36;69.01
46223;BME280;31943;51.410;7.564;2022-09-12T01:50:31;100412.16;;;14.31;68.99
46223;BME280;31943;51.410;7.564;2022-09-12T01:53:00;100410.41;;;14.32;69.44
46223;BME280;31943;51.410;7.564;2022-09-12T01:55:32;100409.50;;;14.34;69.29
46223;BME280;31943;51.410;7.564;2022-09-12T01:58:03;100408.66;;;14.35;69.42
46223;BME280;31943;51.410;7.564;2022-09-12T02:00:30;100406.03;;;14.37;69.33
46223;BME280;31943;51.410;7.564;2022-09-12T02:03:04;100414.75;;;14.39;69.37
46223;BME280;31943;51.410;7.564;2022-09-12T02:05:35;100405.13;;;14.39;69.61
46223;BME280;31943;51.410;7.564;2022-09-12T02:08:04;100405.13;;;14.41;69.47
46223;BME280;31943;51.410;7.564;2022-09-12T02:10:35;100408.63;;;14.41;69.62
46223;BME280;31943;51.410;7.564;2022-09-12T02:13:09;100405.13;;;14.39;69.54
46223;BME280;31943;51.410;7.564;2022-09-12T02:15:42;100402.50;;;14.41;69.62
46223;BME280;31943;51.410;7.564;2022-09-12T02:18:13;100401.59;;;14.40;69.47
46223;BME280;31943;51.410;7.564;2022-09-12T02:20:41;100406.00;;;14.40;69.22
46223;BME280;31943;51.410;7.564;2022-09-12T02:23:10;100403.41;;;14.37;69.11
46223;BME280;31943;51.410;7.564;2022-09-12T02:25:39;100408.66;;;14.35;69.12
46223;BME280;31943;51.410;7.564;2022-09-12T02:28:10;100394.63;;;14.36;68.97
46223;BME280;31943;51.410;7.564;2022-09-12T02:30:42;100406.88;;;14.37;68.79
46223;BME280;31943;51.410;7.564;2022-09-12T02:33:18;100403.38;;;14.38;68.50
46223;BME280;31943;51.410;7.564;2022-09-12T02:35:47;100397.28;;;14.35;67.99
46223;BME280;31943;51.410;7.564;2022-09-12T02:38:21;100385.91;;;14.31;67.66
46223;BME280;31943;51.410;7.564;2022-09-12T02:40:51;100397.31;;;14.27;67.64
46223;BME280;31943;51.410;7.564;2022-09-12T02:43:17;100402.53;;;14.24;67.39
46223;BME280;31943;51.410;7.564;2022-09-12T02:45:43;100392.94;;;14.21;67.40
46223;BME280;31943;51.410;7.564;2022-09-12T02:48:12;100395.56;;;14.18;67.09
46223;BME280;31943;51.410;7.564;2022-09-12T02:50:39;100398.19;;;14.17;67.28
46223;BME280;31943;51.410;7.564;2022-09-12T02:53:07;100388.56;;;14.17;67.02
46223;BME280;31943;51.410;7.564;2022-09-12T02:55:35;100385.94;;;14.16;67.08
46223;BME280;31943;51.410;7.564;2022-09-12T02:58:03;100387.69;;;14.14;67.36
46223;BME280;31943;51.410;7.564;2022-09-12T03:00:33;100379.81;;;14.11;67.23
46223;BME280;31943;51.410;7.564;2022-09-12T03:03:13;100378.09;;;14.10;67.38
46223;BME280;31943;51.410;7.564;2022-09-12T03:05:48;100375.47;;;14.07;67.13
46223;BME280;31943;51.410;7.564;2022-09-12T03:14:30;100374.63;;;14.00;66.82
46223;BME280;31943;51.410;7.564;2022-09-12T03:17:06;100377.25;;;14.00;66.77
46223;BME280;31943;51.410;7.564;2022-09-12T03:19:43;100369.34;;;13.97;66.65
46223;BME280;31943;51.410;7.564;2022-09-12T03:22:18;100372.88;;;13.96;66.81
46223;BME280;31943;51.410;7.564;2022-09-12T03:24:50;100371.97;;;13.95;66.87
46223;BME280;31943;51.410;7.564;2022-09-12T03:27:21;100374.63;;;13.92;67.06
46223;BME280;31943;51.410;7.564;2022-09-12T03:29:50;100372.00;;;13.89;67.04
46223;BME280;31943;51.410;7.564;2022-09-12T03:32:17;100372.84;;;13.90;67.10
46223;BME280;31943;51.410;7.564;2022-09-12T03:34:44;100368.50;;;13.87;66.70
46223;BME280;31943;51.410;7.564;2022-09-12T03:37:09;100366.75;;;13.83;66.50
46223;BME280;31943;51.410;7.564;2022-09-12T03:39:35;100364.13;;;13.81;66.71
46223;BME280;31943;51.410;7.564;2022-09-12T03:42:01;100359.78;;;13.79;67.14
46223;BME280;31943;51.410;7.564;2022-09-12T03:44:26;100363.25;;;13.78;66.44
46223;BME280;31943;51.410;7.564;2022-09-12T03:46:52;100371.16;;;13.75;66.40
46223;BME280;31943;51.410;7.564;2022-09-12T03:49:18;100378.16;;;13.73;66.65
46223;BME280;31943;51.410;7.564;2022-09-12T03:51:45;100363.28;;;13.72;66.54
46223;BME280;31943;51.410;7.564;2022-09-12T03:54:11;100372.03;;;13.69;66.24
46223;BME280;31943;51.410;7.564;2022-09-12T03:56:37;100370.28;;;13.63;66.46
46223;BME280;31943;51.410;7.564;2022-09-12T03:59:04;100372.91;;;13.60;66.06
46223;BME280;31943;51.410;7.564;2022-09-12T04:01:30;100371.16;;;13.58;66.27
46223;BME280;31943;51.410;7.564;2022-09-12T04:03:56;100372.03;;;13.54;66.59
46223;BME280;31943;51.410;7.564;2022-09-12T04:06:25;100372.03;;;13.52;65.78
46223;BME280;31943;51.410;7.564;2022-09-12T04:08:54;100371.16;;;13.52;66.20
46223;BME280;31943;51.410;7.564;2022-09-12T04:11:21;100367.66;;;13.50;66.25
46223;BME280;31943;51.410;7.564;2022-09-12T04:13:47;100367.66;;;13.48;66.25
46223;BME280;31943;51.410;7.564;2022-09-12T04:16:14;100361.53;;;13.46;66.25
46223;BME280;31943;51.410;7.564;2022-09-12T04:18:40;100371.16;;;13.44;66.16
46223;BME280;31943;51.410;7.564;2022-09-12T04:21:07;100369.41;;;13.41;66.06
46223;BME280;31943;51.410;7.564;2022-09-12T04:23:34;100370.28;;;13.39;65.91
46223;BME280;31943;51.410;7.564;2022-09-12T04:26:02;100368.53;;;13.38;65.93
46223;BME280;31943;51.410;7.564;2022-09-12T04:28:29;100364.16;;;13.35;65.89
46223;BME280;31943;51.410;7.564;2022-09-12T04:30:55;100360.66;;;13.35;65.96
46223;BME280;31943;51.410;7.564;2022-09-12T04:33:21;100358.94;;;13.34;66.34
46223;BME280;31943;51.410;7.564;2022-09-12T04:35:47;100359.78;;;13.33;65.94
46223;BME280;31943;51.410;7.564;2022-09-12T04:38:13;100365.03;;;13.31;66.06
46223;BME280;31943;51.410;7.564;2022-09-12T04:40:39;100360.66;;;13.30;65.84
46223;BME280;31943;51.410;7.564;2022-09-12T04:43:06;100358.03;;;13.27;66.17
46223;BME280;31943;51.410;7.564;2022-09-12T04:45:32;100355.38;;;13.29;66.15
46223;BME280;31943;51.410;7.564;2022-09-12T04:47:59;100350.13;;;13.29;66.11
46223;BME280;31943;51.410;7.564;2022-09-12T04:50:25;100359.75;;;13.28;66.33
46223;BME280;31943;51.410;7.564;2022-09-12T04:52:52;100354.50;;;13.28;66.11
46223;BME280;31943;51.410;7.564;2022-09-12T04:55:18;100363.25;;;13.25;66.28
46223;BME280;31943;51.410;7.564;2022-09-12T04:57:43;100353.63;;;13.24;66.22
46223;BME280;31943;51.410;7.564;2022-09-12T05:00:13;100355.38;;;13.22;66.61
46223;BME280;31943;51.410;7.564;2022-09-12T05:02:39;100345.78;;;13.21;66.34
46223;BME280;31943;51.410;7.564;2022-09-12T05:05:06;100354.50;;;13.20;65.98
46223;BME280;31943;51.410;7.564;2022-09-12T05:07:32;100347.53;;;13.18;66.25
46223;BME280;31943;51.410;7.564;2022-09-12T05:09:58;100354.53;;;13.17;66.22
46223;BME280;31943;51.410;7.564;2022-09-12T05:12:23;100351.91;;;13.17;66.40
46223;BME280;31943;51.410;7.564;2022-09-12T05:14:49;100351.00;;;13.17;66.45
46223;BME280;31943;51.410;7.564;2022-09-12T05:17:17;100352.78;;;13.18;66.36
46223;BME280;31943;51.410;7.564;2022-09-12T05:19:43;100351.00;;;13.18;66.28
46223;BME280;31943;51.410;7.564;2022-09-12T05:22:09;100355.38;;;13.16;66.39
46223;BME280;31943;51.410;7.564;2022-09-12T05:24:34;100357.13;;;13.16;66.11
46223;BME280;31943;51.410;7.564;2022-09-12T05:27:00;100363.25;;;13.16;66.40
46223;BME280;31943;51.410;7.564;2022-09-12T05:29:26;100350.13;;;13.16;66.07
46223;BME280;31943;51.410;7.564;2022-09-12T05:31:52;100344.03;;;13.17;66.04
46223;BME280;31943;51.410;7.564;2022-09-12T05:34:19;100349.28;;;13.17;66.35
46223;BME280;31943;51.410;7.564;2022-09-12T05:36:45;100341.41;;;13.19;66.66
46223;BME280;31943;51.410;7.564;2022-09-12T05:39:11;100340.53;;;13.21;66.68
46223;BME280;31943;51.410;7.564;2022-09-12T05:41:37;100338.81;;;13.23;66.47
46223;BME280;31943;51.410;7.564;2022-09-12T05:44:04;100331.81;;;13.25;66.64
46223;BME280;31943;51.410;7.564;2022-09-12T05:46:34;100330.06;;;13.28;66.64
46223;BME280;31943;51.410;7.564;2022-09-12T05:49:02;100328.34;;;13.30;66.49
46223;BME280;31943;51.410;7.564;2022-09-12T05:51:31;100332.72;;;13.32;66.90
46223;BME280;31943;51.410;7.564;2022-09-12T05:53:59;100332.72;;;13.34;67.11
46223;BME280;31943;51.410;7.564;2022-09-12T05:56:26;100336.22;;;13.37;66.93
46223;BME280;31943;51.410;7.564;2022-09-12T05:58:54;100331.84;;;13.41;67.03
46223;BME280;31943;51.410;7.564;2022-09-12T06:01:21;100340.59;;;13.43;66.96
46223;BME280;31943;51.410;7.564;2022-09-12T06:03:49;100340.56;;;13.46;66.69
46223;BME280;31943;51.410;7.564;2022-09-12T06:06:16;100340.59;;;13.49;66.73
46223;BME280;31943;51.410;7.564;2022-09-12T06:08:46;100332.72;;;13.55;66.59
46223;BME280;31943;51.410;7.564;2022-09-12T06:11:14;100338.84;;;13.60;66.61
46223;BME280;31943;51.410;7.564;2022-09-12T06:13:41;100336.22;;;13.60;66.50
46223;BME280;31943;51.410;7.564;2022-09-12T06:16:09;100334.47;;;13.62;66.47
46223;BME280;31943;51.410;7.564;2022-09-12T06:18:36;100335.31;;;13.64;66.54
46223;BME280;31943;51.410;7.564;2022-09-12T06:21:03;100335.31;;;13.69;66.74
46223;BME280;31943;51.410;7.564;2022-09-12T06:23:29;100332.69;;;13.75;66.53
46223;BME280;31943;51.410;7.564;2022-09-12T06:25:57;100332.69;;;13.78;66.52
46223;BME280;31943;51.410;7.564;2022-09-12T06:28:22;100327.41;;;13.83;66.97
46223;BME280;31943;51.410;7.564;2022-09-12T06:30:48;100337.03;;;13.87;66.56
46223;BME280;31943;51.410;7.564;2022-09-12T06:33:14;100333.50;;;13.93;66.94
46223;BME280;31943;51.410;7.564;2022-09-12T06:35:40;100332.63;;;13.98;67.25
46223;BME280;31943;51.410;7.564;2022-09-12T06:38:06;100334.38;;;14.02;67.15
46223;BME280;31943;51.410;7.564;2022-09-12T06:40:32;100328.25;;;14.02;67.32
46223;BME280;31943;51.410;7.564;2022-09-12T06:43:00;100328.22;;;14.07;67.75
46223;BME280;31943;51.410;7.564;2022-09-12T06:45:26;100329.09;;;14.09;67.90
46223;BME280;31943;51.410;7.564;2022-09-12T06:47:52;100329.97;;;14.15;67.74
46223;BME280;31943;51.410;7.564;2022-09-12T06:50:17;100330.78;;;14.27;67.88
46223;BME280;31943;51.410;7.564;2022-09-12T06:52:44;100333.38;;;14.39;67.75
46223;BME280;31943;51.410;7.564;2022-09-12T06:55:10;100331.56;;;14.50;67.47
46223;BME280;31943;51.410;7.564;2022-09-12T06:57:36;100327.16;;;14.61;67.37
46223;BME280;31943;51.410;7.564;2022-09-12T07:00:05;100330.63;;;14.71;67.33
46223;BME280;31943;51.410;7.564;2022-09-12T07:02:32;100321.81;;;14.80;67.04
46223;BME280;31943;51.410;7.564;2022-09-12T07:04:58;100321.78;;;14.86;67.37
46223;BME280;31943;51.410;7.564;2022-09-12T07:07:24;100323.47;;;14.93;67.15
46223;BME280;31943;51.410;7.564;2022-09-12T07:09:50;100327.81;;;15.02;67.15
46223;BME280;31943;51.410;7.564;2022-09-12T07:12:16;100337.41;;;15.08;67.01
46223;BME280;31943;51.410;7.564;2022-09-12T07:14:42;100335.59;;;15.16;67.05
46223;BME280;31943;51.410;7.564;2022-09-12T07:17:09;100338.16;;;15.20;67.17
46223;BME280;31943;51.410;7.564;2022-09-12T07:19:35;100334.63;;;15.28;66.91
46223;BME280;31943;51.410;7.564;2022-09-12T07:22:01;100341.66;;;15.27;66.67
46223;BME280;31943;51.410;7.564;2022-09-12T07:24:26;100332.84;;;15.27;66.88
46223;BME280;31943;51.410;7.564;2022-09-12T07:26:52;100341.59;;;15.33;67.18
46223;BME280;31943;51.410;7.564;2022-09-12T07:29:18;100334.50;;;15.43;67.35
46223;BME280;31943;51.410;7.564;2022-09-12T07:31:45;100334.44;;;15.51;67.00
46223;BME280;31943;51.410;7.564;2022-09-12T07:34:12;100336.97;;;15.60;66.35
46223;BME280;31943;51.410;7.564;2022-09-12T07:36:38;100342.16;;;15.69;66.26
46223;BME280;31943;51.410;7.564;2022-09-12T07:39:05;100339.47;;;15.80;66.59
46223;BME280;31943;51.410;7.564;2022-09-12T07:41:32;100345.50;;;15.90;66.52
46223;BME280;31943;51.410;7.564;2022-09-12T07:43:59;100334.88;;;15.97;66.85
46223;BME280;31943;51.410;7.564;2022-09-12T07:46:28;100335.63;;;16.07;66.42
46223;BME280;31943;51.410;7.564;2022-09-12T07:48:56;100339.03;;;16.17;66.26
46223;BME280;31943;51.410;7.564;2022-09-12T07:51:26;100334.53;;;16.27;66.47
46223;BME280;31943;51.410;7.564;2022-09-12T07:53:53;100343.25;;;16.35;66.47
46223;BME280;31943;51.410;7.564;2022-09-12T07:56:20;100342.25;;;16.40;66.72
46223;BME280;31943;51.410;7.564;2022-09-12T07:58:46;100342.22;;;16.45;66.73
46223;BME280;31943;51.410;7.564;2022-09-12T08:01:13;100342.16;;;16.51;66.49
46223;BME280;31943;51.410;7.564;2022-09-12T08:03:40;100329.81;;;16.55;66.80
46223;BME280;31943;51.410;7.564;2022-09-12T08:06:09;100327.94;;;16.63;66.60
46223;BME280;31943;51.410;7.564;2022-09-12T08:08:37;100337.47;;;16.72;66.99
46223;BME280;31943;51.410;7.564;2022-09-12T08:11:04;100333.84;;;16.80;67.12
46223;BME280;31943;51.410;7.564;2022-09-12T08:13:31;100334.66;;;16.87;67.36
46223;BME280;31943;51.410;7.564;2022-09-12T08:15:58;100334.56;;;16.93;67.32
46223;BME280;31943;51.410;7.564;2022-09-12T08:18:25;100329.16;;;17.01;67.39
46223;BME280;31943;51.410;7.564;2022-09-12T08:20:55;100334.41;;;17.06;66.86
46223;BME280;31943;51.410;7.564;2022-09-12T08:23:21;100333.50;;;17.05;66.70
46223;BME280;31943;51.410;7.564;2022-09-12T08:25:48;100340.50;;;17.08;66.45
46223;BME280;31943;51.410;7.564;2022-09-12T08:28:14;100334.31;;;17.10;66.48
46223;BME280;31943;51.410;7.564;2022-09-12T08:30:40;100336.00;;;17.16;66.55
46223;BME280;31943;51.410;7.564;2022-09-12T08:33:06;100330.59;;;17.24;66.99
46223;BME280;31943;51.410;7.564;2022-09-12T08:35:32;100327.81;;;17.33;66.30
46223;BME280;31943;51.410;7.564;2022-09-12T08:37:58;100330.34;;;17.39;66.50
46223;BME280;31943;51.410;7.564;2022-09-12T08:40:24;100331.91;;;17.51;66.65
46223;BME280;31943;51.410;7.564;2022-09-12T08:42:56;100335.19;;;17.64;66.77
46223;BME280;31943;51.410;7.564;2022-09-12T08:45:31;100330.63;;;17.72;66.13
46223;BME280;31943;51.410;7.564;2022-09-12T08:48:01;100328.69;;;17.85;66.36
46223;BME280;31943;51.410;7.564;2022-09-12T08:50:27;100329.38;;;17.96;66.09
46223;BME280;31943;51.410;7.564;2022-09-12T08:52:57;100332.75;;;18.03;66.02
46223;BME280;31943;51.410;7.564;2022-09-12T08:55:29;100327.28;;;18.13;65.74
46223;BME280;31943;51.410;7.564;2022-09-12T08:57:57;100329.75;;;18.21;65.04
46223;BME280;31943;51.410;7.564;2022-09-12T09:00:32;100319.97;;;18.25;65.02
46223;BME280;31943;51.410;7.564;2022-09-12T09:05:53;100310.97;;;18.35;64.81
46223;BME280;31943;51.410;7.564;2022-09-12T09:08:36;100309.84;;;18.47;64.54
46223;BME280;31943;51.410;7.564;2022-09-12T09:11:17;100310.28;;;18.67;64.76
46223;BME280;31943;51.410;7.564;2022-09-12T09:13:57;100315.19;;;18.86;64.55
46223;BME280;31943;51.410;7.564;2022-09-12T09:16:30;100311.44;;;18.96;64.56
46223;BME280;31943;51.410;7.564;2022-09-12T09:18:58;100313.00;;;19.03;64.32
46223;BME280;31943;51.410;7.564;2022-09-12T09:21:29;100307.63;;;19.08;63.69
46223;BME280;31943;51.410;7.564;2022-09-12T09:24:01;100308.28;;;19.16;64.20
46223;BME280;31943;51.410;7.564;2022-09-12T09:26:40;100308.88;;;19.29;63.38
46223;BME280;31943;51.410;7.564;2022-09-12T09:29:16;100307.09;;;19.29;63.48
46223;BME280;31943;51.410;7.564;2022-09-12T09:31:43;100300.63;;;19.41;63.13
46223;BME280;31943;51.410;7.564;2022-09-12T09:34:14;100307.34;;;19.54;63.27
46223;BME280;31943;51.410;7.564;2022-09-12T09:36:48;100308.72;;;19.68;62.85
46223;BME280;31943;51.410;7.564;2022-09-12T09:39:21;100305.63;;;19.86;62.68
46223;BME280;31943;51.410;7.564;2022-09-12T09:42:01;100300.47;;;20.13;61.92
46223;BME280;31943;51.410;7.564;2022-09-12T09:44:36;100294.59;;;20.33;61.21
46223;BME280;31943;51.410;7.564;2022-09-12T09:47:02;100302.84;;;20.52;61.22
46223;BME280;31943;51.410;7.564;2022-09-12T09:49:32;100298.09;;;20.65;60.43
46223;BME280;31943;51.410;7.564;2022-09-12T09:51:59;100298.13;;;20.63;60.03
46223;BME280;31943;51.410;7.564;2022-09-12T09:54:32;100294.47;;;20.67;60.22
46223;BME280;31943;51.410;7.564;2022-09-12T09:56:59;100296.84;;;20.77;60.27
46223;BME280;31943;51.410;7.564;2022-09-12T09:59:26;100289.22;;;20.94;58.88
46223;BME280;31943;51.410;7.564;2022-09-12T10:01:55;100290.13;;;20.93;58.40
46223;BME280;31943;51.410;7.564;2022-09-12T10:04:24;100286.78;;;20.88;58.31
46223;BME280;31943;51.410;7.564;2022-09-12T10:06:51;100282.91;;;20.98;57.74
46223;BME280;31943;51.410;7.564;2022-09-12T10:09:20;100272.94;;;21.05;56.98
46223;BME280;31943;51.410;7.564;2022-09-12T10:11:47;100268.53;;;21.05;56.70
46223;BME280;31943;51.410;7.564;2022-09-12T10:14:36;100270.81;;;21.16;57.28
46223;BME280;31943;51.410;7.564;2022-09-12T10:17:24;100265.47;;;21.18;56.55
46223;BME280;31943;51.410;7.564;2022-09-12T10:19:50;100264.38;;;21.23;56.46
46223;BME280;31943;51.410;7.564;2022-09-12T10:22:17;100270.22;;;21.60;56.08
46223;BME280;31943;51.410;7.564;2022-09-12T10:24:47;100262.78;;;21.95;54.14
46223;BME280;31943;51.410;7.564;2022-09-12T10:27:15;100253.09;;;22.17;53.08
46223;BME280;31943;51.410;7.564;2022-09-12T10:29:44;100259.94;;;22.24;53.39
46223;BME280;31943;51.410;7.564;2022-09-12T10:32:19;100248.84;;;22.37;53.13
46223;BME280;31943;51.410;7.564;2022-09-12T10:34:47;100261.72;;;22.47;52.61
46223;BME280;31943;51.410;7.564;2022-09-12T10:37:17;100260.53;;;22.33;51.78
46223;BME280;31943;51.410;7.564;2022-09-12T10:39:48;100257.53;;;22.17;52.47
46223;BME280;31943;51.410;7.564;2022-09-12T10:42:44;100253.50;;;22.06;52.83
46223;BME280;31943;51.410;7.564;2022-09-12T10:45:01;100246.59;;;22.26;52.00
46223;BME280;31943;51.410;7.564;2022-09-12T10:47:30;100251.31;;;22.41;51.69
46223;BME280;31943;51.410;7.564;2022-09-12T10:50:18;100248.38;;;22.49;51.64
46223;BME280;31943;51.410;7.564;2022-09-12T10:52:46;100246.56;;;22.49;51.25
46223;BME280;31943;51.410;7.564;2022-09-12T10:55:13;100240.75;;;22.62;51.29
46223;BME280;31943;51.410;7.564;2022-09-12T10:57:50;100243.47;;;22.82;50.39
46223;BME280;31943;51.410;7.564;2022-09-12T11:00:19;100243.66;;;23.00;50.16
46223;BME280;31943;51.410;7.564;2022-09-12T11:02:58;100242.97;;;23.17;49.88
46223;BME280;31943;51.410;7.564;2022-09-12T11:05:41;100234.44;;;23.08;49.61
46223;BME280;31943;51.410;7.564;2022-09-12T11:08:28;100234.81;;;22.99;48.17
46223;BME280;31943;51.410;7.564;2022-09-12T11:11:02;100231.88;;;23.27;48.78
46223;BME280;31943;51.410;7.564;2022-09-12T11:13:44;100224.66;;;23.50;48.42
46223;BME280;31943;51.410;7.564;2022-09-12T11:16:20;100220.44;;;23.25;47.82
46223;BME280;31943;51.410;7.564;2022-09-12T11:19:12;100219.03;;;23.37;47.58
46223;BME280;31943;51.410;7.564;2022-09-12T11:21:56;100217.75;;;23.46;46.62
46223;BME280;31943;51.410;7.564;2022-09-12T11:24:34;100208.69;;;23.50;46.47
46223;BME280;31943;51.410;7.564;2022-09-12T11:27:11;100209.88;;;23.63;46.73
46223;BME280;31943;51.410;7.564;2022-09-12T11:29:47;100202.28;;;23.75;46.55
46223;BME280;31943;51.410;7.564;2022-09-12T11:32:40;100204.84;;;23.97;46.62
46223;BME280;31943;51.410;7.564;2022-09-12T11:35:17;100206.38;;;24.02;46.10
46223;BME280;31943;51.410;7.564;2022-09-12T11:37:51;100199.59;;;24.14;46.41
46223;BME280;31943;51.410;7.564;2022-09-12T11:40:27;100198.22;;;24.24;46.25
46223;BME280;31943;51.410;7.564;2022-09-12T11:42:58;100192.16;;;24.40;46.70
46223;BME280;31943;51.410;7.564;2022-09-12T11:45:28;100191.00;;;24.45;45.18
46223;BME280;31943;51.410;7.564;2022-09-12T11:47:59;100200.31;;;24.18;44.88
46223;BME280;31943;51.410;7.564;2022-09-12T11:50:31;100196.75;;;23.79;45.56
46223;BME280;31943;51.410;7.564;2022-09-12T11:53:00;100192.94;;;23.85;46.39
46223;BME280;31943;51.410;7.564;2022-09-12T11:55:31;100184.63;;;24.12;44.70
46223;BME280;31943;51.410;7.564;2022-09-12T11:58:03;100184.38;;;24.35;44.15
46223;BME280;31943;51.410;7.564;2022-09-12T12:00:31;100185.72;;;24.44;44.06
46223;BME280;31943;51.410;7.564;2022-09-12T12:03:05;100185.91;;;24.03;45.65
46223;BME280;31943;51.410;7.564;2022-09-12T12:05:39;100183.53;;;23.78;46.56
46223;BME280;31943;51.410;7.564;2022-09-12T12:08:07;100179.50;;;23.88;46.20
46223;BME280;31943;51.410;7.564;2022-09-12T12:10:36;100174.16;;;24.26;44.52
46223;BME280;31943;51.410;7.564;2022-09-12T12:13:05;100165.72;;;24.54;43.62
46223;BME280;31943;51.410;7.564;2022-09-12T12:15:34;100163.88;;;24.74;42.53
46223;BME280;31943;51.410;7.564;2022-09-12T12:18:04;100164.97;;;24.87;42.77
46223;BME280;31943;51.410;7.564;2022-09-12T12:20:30;100172.50;;;24.96;42.59
46223;BME280;31943;51.410;7.564;2022-09-12T12:22:58;100167.81;;;25.01;41.30
46223;BME280;31943;51.410;7.564;2022-09-12T12:25:37;100167.09;;;25.15;40.90
46223;BME280;31943;51.410;7.564;2022-09-12T12:28:03;100165.59;;;25.10;40.33
46223;BME280;31943;51.410;7.564;2022-09-12T12:30:59;100167.16;;;25.14;41.58
46223;BME280;31943;51.410;7.564;2022-09-12T12:33:51;100161.22;;;25.26;42.15
46223;BME280;31943;51.410;7.564;2022-09-12T12:36:39;100156.44;;;25.33;41.60
46223;BME280;31943;51.410;7.564;2022-09-12T12:51:38;100140.72;;;25.09;41.42
46223;BME280;31943;51.410;7.564;2022-09-12T12:54:28;100132.13;;;25.20;41.90
46223;BME280;31943;51.410;7.564;2022-09-12T12:57:02;100128.25;;;25.27;42.38
46223;BME280;31943;51.410;7.564;2022-09-12T12:59:31;100125.78;;;25.05;41.80
46223;BME280;31943;51.410;7.564;2022-09-12T13:01:57;100128.69;;;25.18;41.25
46223;BME280;31943;51.410;7.564;2022-09-12T13:04:25;100120.28;;;25.08;41.24
46223;BME280;31943;51.410;7.564;2022-09-12T13:06:59;100116.25;;;25.34;41.61
46223;BME280;31943;51.410;7.564;2022-09-12T13:09:30;100100.03;;;25.55;40.21
46223;BME280;31943;51.410;7.564;2022-09-12T13:12:00;100103.50;;;25.73;39.67
46223;BME280;31943;51.410;7.564;2022-09-12T13:14:46;100096.59;;;25.69;38.77
46223;BME280;31943;51.410;7.564;2022-09-12T13:17:17;100087.81;;;25.82;39.30
46223;BME280;31943;51.410;7.564;2022-09-12T13:19:45;100087.53;;;25.87;39.13
46223;BME280;31943;51.410;7.564;2022-09-12T13:22:11;100089.44;;;25.85;39.15
46223;BME280;31943;51.410;7.564;2022-09-12T13:24:41;100087.06;;;25.96;39.59
46223;BME280;31943;51.410;7.564;2022-09-12T13:27:16;100082.75;;;26.10;38.65
46223;BME280;31943;51.410;7.564;2022-09-12T13:29:43;100078.19;;;25.96;38.58